Time;durP1;ratioP1;P1;durP2;ratioP2;P2;SDS_P1;SDS_P2;PMS_P1;PMS_P2;Temp;Humidity;BMP_temperature;BMP_pressure;BME280_temperature;BME280_humidity;BME280_pressure;Samples;Min_cycle;Max_cycle;Signal;HPM_P1;HPM_P2
2024/03/05 00:00:31;;;;;;;33.75;31.90;;;;;;;6.66;100.00;100500.34;5029802;28;20126;-72
2024/03/05 00:02:58;;;;;;;37.47;35.38;;;;;;;6.58;100.00;100503.06;5021666;28;20049;-71
2024/03/05 00:05:25;;;;;;;36.67;34.47;;;;;;;6.56;100.00;100497.97;5027109;28;20042;-70
2024/03/05 00:07:52;;;;;;;37.15;35.05;;;;;;;6.60;100.00;100501.06;5028447;28;20124;-72
2024/03/05 00:10:21;;;;;;;41.60;39.40;;;;;;;6.49;100.00;100504.19;5021581;28;20056;-72
2024/03/05 00:12:48;;;;;;;35.83;33.72;;;;;;;6.42;100.00;100496.19;5025459;28;20073;-72
2024/03/05 00:15:15;;;;;;;36.25;34.25;;;;;;;6.32;100.00;100501.72;5025293;28;20062;-72
2024/03/05 00:17:43;;;;;;;40.83;38.55;;;;;;;6.31;100.00;100499.28;5027977;28;20527;-72
2024/03/05 00:20:18;;;;;;;35.67;33.75;;;;;;;6.24;100.00;100501.03;5026995;28;20488;-72
2024/03/05 00:22:46;;;;;;;33.40;31.50;;;;;;;6.21;100.00;100496.13;5029098;28;20075;-72
2024/03/05 00:25:14;;;;;;;35.13;33.20;;;;;;;6.17;100.00;100487.72;5026722;28;20045;-72
2024/03/05 00:27:42;;;;;;;35.75;33.83;;;;;;;6.26;100.00;100489.25;5026727;28;20061;-71
2024/03/05 00:30:12;;;;;;;36.53;34.60;;;;;;;6.21;100.00;100483.75;5027098;28;20053;-72
2024/03/05 00:32:38;;;;;;;36.00;34.10;;;;;;;6.15;100.00;100482.66;5029152;28;20057;-72
2024/03/05 00:35:06;;;;;;;36.30;34.30;;;;;;;6.18;100.00;100489.38;5027918;28;20049;-72
2024/03/05 00:37:35;;;;;;;34.13;32.22;;;;;;;6.21;100.00;100490.84;5028365;28;20508;-72
2024/03/05 00:40:04;;;;;;;35.13;33.13;;;;;;;6.23;100.00;100484.34;5026236;28;20128;-72
2024/03/05 00:42:31;;;;;;;39.30;36.80;;;;;;;6.27;100.00;100480.38;5027050;28;20483;-72
2024/03/05 00:44:59;;;;;;;36.65;34.40;;;;;;;6.26;100.00;100488.44;5027910;28;20587;-72
2024/03/05 00:47:27;;;;;;;36.03;34.05;;;;;;;6.20;100.00;100482.09;5022807;28;20065;-72
2024/03/05 00:49:55;;;;;;;36.45;34.10;;;;;;;6.19;100.00;100477.81;5030649;28;20063;-72
2024/03/05 00:52:21;;;;;;;37.45;35.45;;;;;;;6.13;100.00;100476.72;5030671;28;20057;-72
2024/03/05 00:54:49;;;;;;;34.60;32.70;;;;;;;6.10;100.00;100473.63;5028771;28;20046;-72
2024/03/05 00:57:16;;;;;;;35.03;33.03;;;;;;;6.00;100.00;100473.91;5027226;28;20053;-72
2024/03/05 00:59:43;;;;;;;37.78;35.58;;;;;;;6.04;100.00;100471.72;5032248;28;20049;-72
2024/03/05 01:02:11;;;;;;;34.85;32.75;;;;;;;6.06;100.00;100465.28;5028256;28;20499;-71
2024/03/05 01:04:38;;;;;;;32.78;30.88;;;;;;;6.03;100.00;100470.09;5026391;28;20050;-71
2024/03/05 01:07:05;;;;;;;39.58;37.38;;;;;;;6.05;100.00;100468.94;5030765;28;20862;-71
2024/03/05 01:09:32;;;;;;;37.97;35.60;;;;;;;6.10;100.00;100471.81;5027378;28;20064;-70
2024/03/05 01:11:59;;;;;;;32.25;30.45;;;;;;;6.13;100.00;100475.91;5030313;28;20045;-72
2024/03/05 01:14:25;;;;;;;35.25;33.30;;;;;;;6.07;100.00;100479.28;5024957;28;20060;-72
2024/03/05 01:16:52;;;;;;;35.13;33.15;;;;;;;6.09;100.00;100478.09;5039550;28;20794;-72
2024/03/05 01:19:21;;;;;;;32.00;30.15;;;;;;;5.94;100.00;100480.72;5025902;28;20049;-72
2024/03/05 01:21:47;;;;;;;32.83;30.73;;;;;;;5.99;100.00;100489.91;5029414;28;20414;-72
2024/03/05 01:24:14;;;;;;;37.53;35.42;;;;;;;5.98;100.00;100481.19;5031673;28;20046;-72
2024/03/05 01:26:43;;;;;;;35.95;33.95;;;;;;;6.06;100.00;100481.09;5029607;28;20054;-72
2024/03/05 01:29:12;;;;;;;36.65;34.55;;;;;;;6.09;100.00;100479.94;5030222;28;20088;-72
2024/03/05 01:31:39;;;;;;;37.53;35.58;;;;;;;6.04;100.00;100477.81;5029308;28;20045;-72
2024/03/05 01:34:06;;;;;;;37.00;34.75;;;;;;;6.00;100.00;100470.47;5029201;28;20765;-69
2024/03/05 01:36:34;;;;;;;37.17;35.08;;;;;;;5.96;100.00;100477.91;5030339;28;20049;-71
2024/03/05 01:39:01;;;;;;;39.88;36.95;;;;;;;5.92;100.00;100468.69;5021974;28;20123;-72
2024/03/05 01:41:28;;;;;;;35.97;34.08;;;;;;;5.90;100.00;100468.88;5031640;28;20064;-72
2024/03/05 01:43:55;;;;;;;37.35;35.15;;;;;;;5.90;100.00;100470.69;5028729;28;20053;-72
2024/03/05 01:46:22;;;;;;;35.15;33.25;;;;;;;5.78;100.00;100470.34;5029045;28;20046;-70
2024/03/05 01:48:51;;;;;;;36.90;34.70;;;;;;;5.75;100.00;100473.34;5034106;28;20056;-72
2024/03/05 01:51:20;;;;;;;38.33;36.33;;;;;;;5.68;100.00;100467.94;5031759;28;20084;-72
2024/03/05 01:53:48;;;;;;;37.20;35.10;;;;;;;5.64;100.00;100465.84;5025496;28;20053;-72
2024/03/05 01:56:17;;;;;;;37.05;34.85;;;;;;;5.62;100.00;100463.38;5020660;28;20053;-71
2024/03/05 01:58:45;;;;;;;39.42;37.22;;;;;;;5.69;100.00;100461.69;5031808;28;20499;-72
2024/03/05 02:01:13;;;;;;;38.80;36.70;;;;;;;5.68;100.00;100460.03;5029575;28;21408;-71
2024/03/05 02:03:41;;;;;;;35.65;33.55;;;;;;;5.68;100.00;100464.50;5029783;28;20144;-71
2024/03/05 02:06:10;;;;;;;37.33;35.22;;;;;;;5.64;100.00;100465.84;5030130;28;20057;-72
2024/03/05 02:08:39;;;;;;;38.47;36.17;;;;;;;5.59;100.00;100460.31;5027805;28;20100;-72
2024/03/05 02:11:08;;;;;;;36.08;33.97;;;;;;;5.50;100.00;100463.00;5029324;28;20112;-72
2024/03/05 02:13:37;;;;;;;39.83;37.30;;;;;;;5.48;100.00;100467.66;5030039;28;20493;-72
2024/03/05 02:16:05;;;;;;;48.22;44.95;;;;;;;5.52;100.00;100465.47;5025434;28;20041;-72
2024/03/05 02:18:34;;;;;;;42.05;38.95;;;;;;;5.54;100.00;100468.75;5030987;28;20053;-72
2024/03/05 02:21:03;;;;;;;39.08;36.72;;;;;;;5.48;100.00;100469.47;5030765;28;20053;-72
2024/03/05 02:23:30;;;;;;;39.15;36.88;;;;;;;5.39;100.00;100473.19;5029706;28;20053;-72
2024/03/05 02:25:58;;;;;;;38.15;35.95;;;;;;;5.35;100.00;100469.25;5030535;28;20057;-72
2024/03/05 02:28:26;;;;;;;40.97;38.80;;;;;;;5.32;100.00;100464.31;5029758;28;20857;-72
2024/03/05 02:30:53;;;;;;;40.53;38.22;;;;;;;5.25;100.00;100464.22;5031472;28;20448;-72
2024/03/05 02:33:21;;;;;;;40.70;38.30;;;;;;;5.07;100.00;100471.59;5026625;28;20045;-72
2024/03/05 02:35:48;;;;;;;46.55;43.75;;;;;;;5.11;100.00;100467.63;5029211;28;20092;-72
2024/03/05 02:38:17;;;;;;;39.58;37.25;;;;;;;5.02;100.00;100464.22;5027513;28;20432;-72
2024/03/05 02:40:44;;;;;;;40.65;38.45;;;;;;;5.05;100.00;100469.97;5030362;28;20049;-72
2024/03/05 02:43:11;;;;;;;40.53;37.80;;;;;;;4.75;100.00;100466.41;5026271;28;20045;-72
2024/03/05 02:45:37;;;;;;;36.17;34.08;;;;;;;4.64;100.00;100479.13;5028668;28;20436;-72
2024/03/05 02:48:04;;;;;;;37.05;35.05;;;;;;;4.59;100.00;100472.56;5024584;28;20057;-72
2024/03/05 02:50:31;;;;;;;36.28;34.08;;;;;;;4.48;100.00;100475.59;5030451;28;20489;-72
2024/03/05 02:53:00;;;;;;;41.47;39.15;;;;;;;4.50;100.00;100483.28;5028869;28;20056;-72
2024/03/05 02:55:29;;;;;;;37.55;34.95;;;;;;;4.31;100.00;100484.53;5028423;28;20042;-72
2024/03/05 02:57:55;;;;;;;37.47;35.10;;;;;;;4.47;100.00;100488.91;5026658;28;20049;-72
2024/03/05 03:00:24;;;;;;;35.60;33.50;;;;;;;4.44;100.00;100482.16;5030308;28;20791;-72
2024/03/05 03:02:51;;;;;;;34.35;32.35;;;;;;;4.52;100.00;100492.66;5026456;28;20174;-72
2024/03/05 03:05:21;;;;;;;38.05;35.53;;;;;;;4.55;100.00;100487.03;5026729;28;20049;-72
2024/03/05 03:07:48;;;;;;;36.55;34.15;;;;;;;4.46;100.00;100476.75;5020151;28;20049;-72
2024/03/05 03:10:15;;;;;;;34.85;32.55;;;;;;;4.54;100.00;100481.97;5028821;28;20057;-71
2024/03/05 03:12:43;;;;;;;37.65;35.05;;;;;;;4.53;100.00;100485.56;5029713;28;20444;-72
2024/03/05 03:15:11;;;;;;;35.47;33.17;;;;;;;4.61;100.00;100484.72;5020155;28;20517;-72
2024/03/05 03:17:41;;;;;;;35.55;32.95;;;;;;;4.57;100.00;100479.81;5029702;28;20107;-72
2024/03/05 03:20:09;;;;;;;35.28;32.88;;;;;;;4.44;100.00;100495.31;5034155;28;20099;-72
2024/03/05 03:22:36;;;;;;;39.03;36.42;;;;;;;4.37;100.00;100483.84;5029098;28;20057;-72
2024/03/05 03:25:05;;;;;;;35.75;33.45;;;;;;;4.30;100.00;100485.53;5025601;28;20068;-72
2024/03/05 03:27:32;;;;;;;36.63;33.92;;;;;;;4.29;100.00;100487.31;5026967;28;20466;-72
2024/03/05 03:30:00;;;;;;;38.10;35.50;;;;;;;4.36;100.00;100490.91;5028278;28;20058;-72
2024/03/05 03:32:27;;;;;;;37.65;34.75;;;;;;;4.29;100.00;100489.13;5029164;28;20429;-72
2024/03/05 03:34:54;;;;;;;38.17;35.58;;;;;;;4.27;100.00;100491.94;5029020;28;20049;-72
2024/03/05 03:37:22;;;;;;;38.08;35.22;;;;;;;4.29;100.00;100492.56;5030049;28;20501;-71
2024/03/05 03:39:48;;;;;;;40.75;38.05;;;;;;;4.36;100.00;100490.09;5025832;28;20128;-72
2024/03/05 03:42:16;;;;;;;37.83;35.33;;;;;;;4.16;100.00;100494.13;5030115;28;20045;-72
2024/03/05 03:44:43;;;;;;;34.75;32.42;;;;;;;4.04;100.00;100486.59;5027499;28;20053;-70
2024/03/05 03:47:12;;;;;;;36.20;33.83;;;;;;;4.25;100.00;100480.78;5028987;28;20052;-72
2024/03/05 03:49:45;;;;;;;34.60;32.30;;;;;;;4.03;100.00;100484.97;5026514;28;20497;-72
2024/03/05 03:52:13;;;;;;;35.33;32.83;;;;;;;4.10;100.00;100482.47;5027209;28;20835;-72
2024/03/05 03:54:39;;;;;;;36.15;33.65;;;;;;;3.93;100.00;100481.69;5027823;28;20135;-72
2024/03/05 03:57:07;;;;;;;34.80;32.30;;;;;;;3.88;100.00;100484.00;5032809;28;20044;-72
2024/03/05 03:59:34;;;;;;;31.98;29.67;;;;;;;3.90;100.00;100474.97;5029200;28;20513;-72
2024/03/05 04:02:00;;;;;;;33.10;30.70;;;;;;;3.98;100.00;100482.00;5028308;28;20575;-72
2024/03/05 04:04:29;;;;;;;36.88;34.33;;;;;;;3.94;100.00;100479.91;5029317;28;20057;-72
2024/03/05 04:06:56;;;;;;;33.45;31.05;;;;;;;3.94;100.00;100478.09;5029401;28;20121;-72
2024/03/05 04:09:23;;;;;;;35.30;32.35;;;;;;;3.67;100.00;100474.84;5027619;28;20065;-72
2024/03/05 04:11:50;;;;;;;34.65;32.15;;;;;;;3.83;100.00;100475.81;5027915;28;20050;-72
2024/03/05 04:14:17;;;;;;;31.75;29.35;;;;;;;3.82;100.00;100479.44;5025057;28;20603;-72
2024/03/05 04:16:44;;;;;;;40.80;37.78;;;;;;;3.87;100.00;100472.69;5027885;28;20053;-72
2024/03/05 04:19:11;;;;;;;50.85;46.15;;;;;;;3.84;100.00;100469.56;5027029;28;20172;-72
2024/03/05 04:21:42;;;;;;;49.83;45.20;;;;;;;3.82;100.00;100472.34;5027895;28;20525;-72
2024/03/05 04:24:11;;;;;;;51.03;46.33;;;;;;;3.73;100.00;100464.66;5016630;28;20050;-72
2024/03/05 04:26:38;;;;;;;36.15;32.67;;;;;;;3.78;100.00;100465.81;5029014;28;20136;-72
2024/03/05 04:29:06;;;;;;;37.88;34.03;;;;;;;3.81;100.00;100476.00;5019943;28;20045;-72
2024/03/05 04:31:34;;;;;;;59.17;53.47;;;;;;;3.80;100.00;100478.75;5027800;28;20041;-72
2024/03/05 04:34:07;;;;;;;59.03;53.13;;;;;;;3.83;100.00;100475.81;5028276;28;20052;-72
2024/03/05 04:36:37;;;;;;;63.92;57.83;;;;;;;3.82;100.00;100463.66;5024866;28;20081;-72
2024/03/05 04:39:10;;;;;;;44.65;40.70;;;;;;;3.83;100.00;100467.91;5015151;28;20116;-72
2024/03/05 04:41:38;;;;;;;34.38;31.10;;;;;;;3.85;100.00;100472.03;5025707;28;20060;-72
2024/03/05 04:44:13;;;;;;;45.78;41.88;;;;;;;3.92;100.00;100474.78;5026074;28;20128;-72
2024/03/05 04:46:40;;;;;;;62.70;56.63;;;;;;;3.80;100.00;100473.50;5025158;28;20056;-71
2024/03/05 04:49:07;;;;;;;64.00;53.47;;;;;;;3.87;100.00;100470.06;5022738;28;20048;-72
2024/03/05 04:51:34;;;;;;;46.45;42.15;;;;;;;3.91;100.00;100475.78;5024922;28;20443;-72
2024/03/05 04:54:01;;;;;;;47.45;42.55;;;;;;;3.96;100.00;100476.09;5027629;28;20060;-72
2024/03/05 04:56:29;;;;;;;49.03;43.80;;;;;;;4.03;100.00;100482.31;5028165;28;20065;-72
2024/03/05 04:58:56;;;;;;;58.42;52.53;;;;;;;4.07;100.00;100475.72;5025386;28;20046;-71
2024/03/05 05:01:23;;;;;;;40.72;36.78;;;;;;;4.11;100.00;100484.94;5028072;28;20429;-72
2024/03/05 05:03:50;;;;;;;53.70;48.45;;;;;;;4.21;100.00;100494.44;5027861;28;20045;-70
2024/03/05 05:06:17;;;;;;;55.28;50.17;;;;;;;4.22;100.00;100488.19;5023053;28;20486;-70
2024/03/05 05:08:45;;;;;;;39.75;36.35;;;;;;;4.29;100.00;100489.94;5024226;28;20441;-70
2024/03/05 05:11:12;;;;;;;35.10;31.88;;;;;;;4.27;100.00;100493.75;5026112;28;20667;-72
2024/03/05 05:13:40;;;;;;;34.90;31.60;;;;;;;4.29;100.00;100497.00;5023877;28;20057;-70
2024/03/05 05:16:08;;;;;;;32.80;30.60;;;;;;;4.35;100.00;100491.88;5025842;28;20182;-71
2024/03/05 05:18:35;;;;;;;32.08;29.90;;;;;;;4.44;100.00;100494.50;5025804;28;20140;-70
2024/03/05 05:21:02;;;;;;;32.85;30.55;;;;;;;4.47;100.00;100508.13;5027513;28;20456;-70
2024/03/05 05:23:29;;;;;;;38.72;35.80;;;;;;;4.59;100.00;100503.31;5024283;28;20065;-70
2024/03/05 05:25:56;;;;;;;32.60;30.30;;;;;;;4.79;100.00;100503.69;5024446;28;20045;-70
2024/03/05 05:28:23;;;;;;;36.55;34.15;;;;;;;4.93;100.00;100508.22;5024781;28;20099;-72
2024/03/05 05:30:51;;;;;;;34.17;31.77;;;;;;;5.11;100.00;100505.28;5027889;28;20162;-72
2024/03/05 05:33:20;;;;;;;35.30;32.90;;;;;;;5.33;100.00;100516.84;5029987;28;20092;-72
2024/03/05 05:35:48;;;;;;;36.72;34.15;;;;;;;5.52;100.00;100520.78;5028255;28;20052;-72
2024/03/05 05:38:15;;;;;;;41.28;38.40;;;;;;;5.78;100.00;100516.94;5032448;28;20050;-72
2024/03/05 05:40:43;;;;;;;40.78;37.17;;;;;;;6.01;100.00;100524.81;5031138;28;20049;-72
2024/03/05 05:43:18;;;;;;;46.72;43.53;;;;;;;6.16;100.00;100533.56;5026904;28;20107;-72
2024/03/05 05:45:48;;;;;;;45.15;41.95;;;;;;;7.29;100.00;100529.63;5029501;28;20076;-72
2024/03/05 05:48:24;;;;;;;36.35;33.45;;;;;;;7.47;100.00;100534.44;5025548;28;20033;-72
2024/03/05 05:50:54;;;;;;;37.65;34.70;;;;;;;6.76;100.00;100539.63;5027947;28;20089;-71
2024/03/05 05:53:21;;;;;;;37.80;35.00;;;;;;;6.69;100.00;100539.56;5029374;28;20056;-70
2024/03/05 05:55:48;;;;;;;39.30;36.40;;;;;;;6.89;100.00;100545.84;5028458;28;20133;-71
2024/03/05 05:58:14;;;;;;;37.53;34.72;;;;;;;6.84;100.00;100547.44;5031036;28;20468;-73
2024/03/05 06:00:41;;;;;;;36.53;33.83;;;;;;;6.90;100.00;100538.78;5030550;28;20049;-72
2024/03/05 06:03:09;;;;;;;42.03;38.95;;;;;;;7.18;100.00;100536.22;5026186;28;20064;-68
2024/03/05 06:05:38;;;;;;;40.17;37.28;;;;;;;7.25;100.00;100534.47;5027686;28;20517;-73
2024/03/05 06:08:10;;;;;;;39.38;36.58;;;;;;;6.99;100.00;100542.09;5027654;28;20115;-71
2024/03/05 06:10:37;;;;;;;45.40;42.20;;;;;;;7.08;100.00;100538.34;5027290;28;20053;-71
2024/03/05 06:13:06;;;;;;;45.13;41.78;;;;;;;7.15;100.00;100539.25;5039265;28;20868;-71
2024/03/05 06:15:33;;;;;;;44.13;40.95;;;;;;;7.28;100.00;100538.56;5031731;28;20049;-70
2024/03/05 06:18:00;;;;;;;40.60;37.70;;;;;;;7.50;100.00;100542.84;5028297;28;20046;-70
2024/03/05 06:20:28;;;;;;;42.70;39.70;;;;;;;7.29;100.00;100546.31;5030012;28;20045;-71
2024/03/05 06:22:57;;;;;;;43.10;40.17;;;;;;;7.31;100.00;100548.75;5027816;28;20456;-73
2024/03/05 06:25:24;;;;;;;43.53;40.53;;;;;;;7.86;100.00;100541.06;5028443;28;20077;-71
2024/03/05 06:27:52;;;;;;;45.65;42.40;;;;;;;7.45;100.00;100544.41;5030303;28;20045;-71
2024/03/05 06:30:19;;;;;;;44.75;41.33;;;;;;;7.56;100.00;100539.44;5029535;28;20045;-70
2024/03/05 06:32:48;;;;;;;44.95;41.22;;;;;;;7.62;100.00;100544.97;5030368;28;20061;-71
2024/03/05 06:35:25;;;;;;;44.42;41.33;;;;;;;7.74;100.00;100538.94;5025640;28;20057;-72
2024/03/05 06:37:53;;;;;;;44.55;41.30;;;;;;;7.90;100.00;100542.34;5027577;28;20500;-71
2024/03/05 06:40:22;;;;;;;43.33;40.15;;;;;;;7.77;100.00;100543.84;5029999;28;20129;-71
2024/03/05 06:42:52;;;;;;;42.67;39.53;;;;;;;8.00;100.00;100545.47;5029272;28;20049;-71
2024/03/05 06:45:26;;;;;;;46.40;43.00;;;;;;;7.90;100.00;100545.00;5028723;28;20058;-71
2024/03/05 06:47:56;;;;;;;49.42;45.53;;;;;;;7.91;100.00;100542.13;5030368;28;20068;-71
2024/03/05 06:50:23;;;;;;;42.80;39.67;;;;;;;8.07;100.00;100540.22;5025307;28;20056;-71
2024/03/05 06:58:23;;;;;;;44.92;41.53;;;;;;;8.38;100.00;100537.13;5024928;28;20180;-71
2024/03/05 07:00:52;;;;;;;44.03;40.83;;;;;;;8.16;100.00;100534.56;5026687;28;20057;-71
2024/03/05 07:03:18;;;;;;;50.78;47.38;;;;;;;8.69;100.00;100544.66;5024473;28;20704;-71
2024/03/05 07:05:45;;;;;;;49.53;46.10;;;;;;;8.45;100.00;100538.03;5032627;28;20049;-71
2024/03/05 07:08:12;;;;;;;45.40;42.30;;;;;;;8.29;100.00;100539.16;5029800;28;20053;-70
2024/03/05 07:10:41;;;;;;;45.10;41.50;;;;;;;8.15;100.00;100543.53;5028242;28;20049;-71
2024/03/05 07:13:09;;;;;;;48.28;44.88;;;;;;;8.19;100.00;100538.66;5027976;28;20145;-70
2024/03/05 07:15:35;;;;;;;52.20;48.70;;;;;;;8.43;100.00;100534.75;5032665;28;20209;-69
2024/03/05 07:18:02;;;;;;;48.85;45.55;;;;;;;8.39;100.00;100542.28;5023549;28;20501;-69
2024/03/05 07:20:30;;;;;;;49.15;45.60;;;;;;;8.51;100.00;100536.44;5026638;28;20049;-68
2024/03/05 07:22:57;;;;;;;50.90;47.40;;;;;;;8.95;100.00;100536.78;5025260;28;20077;-69
2024/03/05 07:25:24;;;;;;;50.53;47.13;;;;;;;8.93;100.00;100535.38;5028942;28;20052;-71
2024/03/05 07:27:53;;;;;;;49.38;46.08;;;;;;;8.99;100.00;100541.72;5027717;28;20041;-71
2024/03/05 07:30:21;;;;;;;54.50;50.95;;;;;;;9.11;100.00;100543.56;5028536;28;20572;-71
2024/03/05 07:32:49;;;;;;;51.33;48.05;;;;;;;9.38;100.00;100530.38;5026542;28;20499;-69
2024/03/05 07:35:18;;;;;;;53.08;49.45;;;;;;;9.27;100.00;100533.59;5026153;28;20050;-69
2024/03/05 07:37:46;;;;;;;55.95;51.78;;;;;;;9.78;100.00;100536.50;5028446;28;20050;-71
2024/03/05 07:40:17;;;;;;;52.38;49.15;;;;;;;10.08;100.00;100539.53;5029005;28;20041;-71
2024/03/05 07:42:47;;;;;;;56.45;52.95;;;;;;;10.14;100.00;100540.53;5028384;28;20497;-73
2024/03/05 07:45:16;;;;;;;54.47;51.08;;;;;;;10.48;100.00;100536.78;5027288;28;20128;-69
2024/03/05 07:47:43;;;;;;;51.83;48.63;;;;;;;10.34;100.00;100537.84;5023675;28;20695;-69
2024/03/05 07:50:12;;;;;;;54.42;51.22;;;;;;;10.02;100.00;100548.31;5018438;28;20041;-69
2024/03/05 07:52:40;;;;;;;52.63;49.45;;;;;;;10.25;100.00;100545.19;5027675;28;20065;-70
2024/03/05 07:55:10;;;;;;;52.33;49.03;;;;;;;10.60;100.00;100544.13;5027816;28;20107;-71
2024/03/05 07:57:38;;;;;;;45.65;42.42;;;;;;;10.56;100.00;100541.06;5032705;28;20053;-70
2024/03/05 08:00:08;;;;;;;43.67;40.78;;;;;;;10.90;100.00;100552.38;5028196;28;20064;-71
2024/03/05 08:02:39;;;;;;;50.65;47.60;;;;;;;10.52;100.00;100545.16;5030408;28;20053;-69
2024/03/05 08:05:07;;;;;;;57.30;53.50;;;;;;;11.09;100.00;100540.81;5029652;28;20045;-71
2024/03/05 08:07:35;;;;;;;54.90;50.15;;;;;;;11.40;100.00;100528.53;5024520;28;20076;-71
2024/03/05 08:10:06;;;;;;;52.90;49.50;;;;;;;11.93;100.00;100528.16;5023159;28;20057;-71
2024/03/05 08:12:35;;;;;;;47.92;44.90;;;;;;;11.86;100.00;100541.53;5028662;28;20107;-70
2024/03/05 08:15:03;;;;;;;40.08;37.08;;;;;;;12.15;100.00;100531.19;5025150;28;20119;-71
2024/03/05 08:17:30;;;;;;;40.25;37.47;;;;;;;12.30;100.00;100534.31;5028385;28;20076;-71
2024/03/05 08:19:58;;;;;;;36.40;34.00;;;;;;;12.23;100.00;100533.59;5024581;28;20045;-70
2024/03/05 08:22:25;;;;;;;45.10;42.20;;;;;;;12.60;100.00;100536.25;5028078;28;20060;-70
2024/03/05 08:24:52;;;;;;;47.83;45.13;;;;;;;12.92;100.00;100526.19;5028310;28;20158;-71
2024/03/05 08:27:18;;;;;;;48.72;45.92;;;;;;;12.94;100.00;100539.28;5025642;28;20049;-69
2024/03/05 08:29:49;;;;;;;35.22;32.78;;;;;;;12.80;100.00;100541.34;5022705;28;20055;-69
2024/03/05 08:32:17;;;;;;;50.42;47.53;;;;;;;13.43;100.00;100529.38;5025410;28;20072;-69
2024/03/05 08:34:44;;;;;;;46.65;43.58;;;;;;;13.25;100.00;100535.59;5025492;28;20060;-69
2024/03/05 08:37:15;;;;;;;44.78;42.08;;;;;;;13.67;100.00;100532.91;5025922;28;20810;-69
2024/03/05 08:39:42;;;;;;;47.13;44.42;;;;;;;13.68;100.00;100538.03;5017322;28;20516;-69
2024/03/05 08:42:09;;;;;;;47.85;45.10;;;;;;;13.52;100.00;100534.19;5024977;28;20482;-68
2024/03/05 08:44:36;;;;;;;47.97;45.08;;;;;;;13.61;100.00;100533.81;5025492;28;20053;-69
2024/03/05 08:47:04;;;;;;;47.25;44.58;;;;;;;14.28;100.00;100533.47;5026624;28;20456;-70
2024/03/05 08:49:31;;;;;;;46.88;44.00;;;;;;;13.96;100.00;100534.66;5021363;28;20075;-70
2024/03/05 08:51:58;;;;;;;38.60;35.95;;;;;;;14.17;100.00;100540.47;5025757;28;20117;-69
2024/03/05 08:54:30;;;;;;;46.47;43.88;;;;;;;13.94;100.00;100531.41;5032029;28;20413;-70
2024/03/05 08:56:58;;;;;;;46.85;44.15;;;;;;;13.76;100.00;100534.19;5034346;28;20115;-70
2024/03/05 08:59:25;;;;;;;47.40;44.70;;;;;;;13.88;100.00;100532.31;5025037;28;20107;-69
2024/03/05 09:01:53;;;;;;;47.90;45.20;;;;;;;14.32;100.00;100537.31;5021362;28;20054;-69
2024/03/05 09:04:21;;;;;;;48.28;45.38;;;;;;;14.35;100.00;100539.50;5025233;28;20448;-70
2024/03/05 09:06:49;;;;;;;48.65;45.92;;;;;;;13.64;100.00;100528.81;5026425;28;20061;-69
2024/03/05 09:09:17;;;;;;;43.20;40.50;;;;;;;14.47;100.00;100531.47;5026843;28;20056;-69
2024/03/05 09:11:47;;;;;;;46.70;44.00;;;;;;;14.12;100.00;100535.00;5028636;28;20045;-69
2024/03/05 09:14:13;;;;;;;53.28;49.97;;;;;;;14.77;100.00;100531.31;5029427;28;20586;-69
2024/03/05 09:16:41;;;;;;;52.88;49.78;;;;;;;15.20;100.00;100533.44;5027524;28;20053;-69
2024/03/05 09:19:10;;;;;;;46.30;43.50;;;;;;;14.80;100.00;100541.53;5029129;28;20517;-69
2024/03/05 09:21:37;;;;;;;47.88;45.10;;;;;;;14.92;100.00;100534.28;5028052;28;20057;-69
2024/03/05 09:24:06;;;;;;;32.83;30.33;;;;;;;15.66;100.00;100520.81;5028342;28;20049;-71
2024/03/05 09:26:33;;;;;;;38.55;36.20;;;;;;;15.77;100.00;100525.31;5030563;28;20077;-70
2024/03/05 09:29:04;;;;;;;42.15;39.67;;;;;;;15.35;100.00;100527.53;4985826;28;1324390;-70
2024/03/05 09:31:33;;;;;;;31.23;28.83;;;;;;;14.63;100.00;100528.09;5031835;28;20057;-71
2024/03/05 09:34:00;;;;;;;50.25;47.35;;;;;;;15.11;100.00;100524.19;5026558;28;20163;-70
2024/03/05 09:36:27;;;;;;;51.38;48.05;;;;;;;15.85;100.00;100528.63;5029101;28;20119;-70
2024/03/05 09:38:54;;;;;;;53.33;50.42;;;;;;;15.37;100.00;100530.78;5029162;28;20045;-71
2024/03/05 09:41:22;;;;;;;50.75;47.65;;;;;;;15.41;100.00;100529.25;5030678;28;20128;-70
2024/03/05 09:43:51;;;;;;;51.28;48.17;;;;;;;16.35;100.00;100517.78;5026317;28;20440;-70
2024/03/05 09:46:21;;;;;;;49.17;46.05;;;;;;;15.90;100.00;100526.00;5030058;28;20079;-70
2024/03/05 09:48:48;;;;;;;51.45;48.55;;;;;;;15.67;100.00;100525.13;5028614;28;20527;-71
2024/03/05 09:51:21;;;;;;;52.85;49.75;;;;;;;16.34;100.00;100524.22;5027253;28;20525;-70
2024/03/05 09:53:51;;;;;;;57.58;54.28;;;;;;;16.69;100.00;100529.19;5031927;28;20049;-71
2024/03/05 09:56:19;;;;;;;54.05;50.95;;;;;;;16.47;100.00;100528.41;5030086;28;20068;-70
2024/03/05 09:58:48;;;;;;;54.38;51.38;;;;;;;16.75;100.00;100521.22;5033168;28;20077;-71
2024/03/05 10:01:15;;;;;;;52.20;49.10;;;;;;;16.67;100.00;100527.81;5025570;28;20049;-70
2024/03/05 10:03:44;;;;;;;44.70;42.20;;;;;;;16.91;100.00;100523.84;5028875;28;20058;-71
2024/03/05 10:06:12;;;;;;;47.38;44.50;;;;;;;16.66;100.00;100524.31;5027796;28;20057;-69
2024/03/05 10:08:40;;;;;;;53.15;50.10;;;;;;;17.51;100.00;100516.59;5026819;28;20073;-70
2024/03/05 10:11:07;;;;;;;52.53;49.35;;;;;;;16.98;100.00;100512.91;5031206;28;20618;-69
2024/03/05 10:13:36;;;;;;;40.53;37.92;;;;;;;16.69;100.00;100515.78;5030963;28;20132;-70
2024/03/05 10:16:19;;;;;;;46.97;44.28;;;;;;;17.15;100.00;100518.97;5028988;28;20073;-69
2024/03/05 10:18:49;;;;;;;45.03;42.05;;;;;;;16.92;100.00;100520.09;5025634;28;20115;-70
2024/03/05 10:21:20;;;;;;;56.70;53.40;;;;;;;16.64;100.00;100523.78;5028513;28;20073;-70
2024/03/05 10:23:57;;;;;;;58.05;54.63;;;;;;;16.52;100.00;100515.06;5033317;28;20111;-69
2024/03/05 10:26:27;;;;;;;54.78;51.55;;;;;;;16.93;100.00;100513.66;5025493;28;20048;-70
2024/03/05 10:28:58;;;;;;;57.03;53.75;;;;;;;16.54;100.00;100517.47;5028495;28;20037;-70
2024/03/05 10:31:26;;;;;;;45.00;42.40;;;;;;;16.36;100.00;100511.38;5026023;28;20501;-70
2024/03/05 10:33:56;;;;;;;53.78;50.53;;;;;;;15.85;100.00;100517.91;5029118;28;20410;-70
2024/03/05 10:36:30;;;;;;;53.88;50.97;;;;;;;16.64;100.00;100523.78;5025777;28;20161;-70
2024/03/05 10:38:57;;;;;;;50.67;47.78;;;;;;;16.30;100.00;100516.91;5029348;28;20056;-70
2024/03/05 10:41:25;;;;;;;54.42;51.17;;;;;;;16.81;100.00;100515.66;5028602;28;20049;-70
2024/03/05 10:43:52;;;;;;;56.03;52.42;;;;;;;17.12;100.00;100513.28;5028479;28;20057;-70
2024/03/05 10:46:23;;;;;;;55.25;52.35;;;;;;;16.76;100.00;100514.81;5028943;28;20057;-70
2024/03/05 10:48:52;;;;;;;57.45;54.45;;;;;;;16.27;100.00;100516.34;5029687;28;20790;-70
2024/03/05 10:51:23;;;;;;;55.83;52.67;;;;;;;17.03;100.00;100504.88;5021876;28;20497;-70
2024/03/05 10:53:51;;;;;;;31.60;29.67;;;;;;;16.62;100.00;100511.69;5031217;28;20053;-72
2024/03/05 10:56:18;;;;;;;46.75;44.03;;;;;;;17.02;100.00;100499.78;5027981;28;20065;-70
2024/03/05 10:59:19;;;;;;;49.22;46.45;;;;;;;17.39;100.00;100500.66;5029335;28;20046;-70
2024/03/05 11:01:45;;;;;;;57.20;54.03;;;;;;;17.91;100.00;100507.22;5027933;28;20053;-70
2024/03/05 11:04:15;;;;;;;39.45;37.25;;;;;;;16.72;100.00;100506.44;5032034;28;20144;-72
2024/03/05 11:06:47;;;;;;;58.60;55.50;;;;;;;16.98;100.00;100504.06;5027441;28;20485;-71
2024/03/05 11:09:19;;;;;;;34.63;32.42;;;;;;;17.59;100.00;100502.69;5027599;28;20050;-69
2024/03/05 11:11:50;;;;;;;61.15;57.42;;;;;;;17.30;100.00;100499.50;5025013;28;20076;-72
2024/03/05 11:14:19;;;;;;;60.55;57.15;;;;;;;17.38;100.00;100504.41;5026658;28;20069;-72
2024/03/05 11:16:48;;;;;;;63.15;59.83;;;;;;;17.08;100.00;100499.59;5027810;28;20524;-71